Time;durP1;ratioP1;P1;durP2;ratioP2;P2;SDS_P1;SDS_P2;PMS_P1;PMS_P2;Temp;Humidity;BMP_temperature;BMP_pressure;BME280_temperature;BME280_humidity;BME280_pressure;Samples;Min_cycle;Max_cycle;Signal;HPM_P1;HPM_P2
2022/02/27 00:02:17;;;;;;;5.47;4.17;;;;;;;9.29;49.66;102798.66;1758585;80;20991;-53
2022/02/27 00:04:43;;;;;;;6.30;3.80;;;;;;;9.23;49.56;102803.76;1756061;80;21116;-52
2022/02/27 00:07:11;;;;;;;3.98;3.58;;;;;;;9.17;49.70;102799.73;1752343;80;21014;-53
2022/02/27 00:09:38;;;;;;;5.10;3.75;;;;;;;9.10;49.82;102796.60;1744453;80;20994;-52
2022/02/27 00:12:07;;;;;;;5.92;3.80;;;;;;;9.04;49.63;102800.39;1760762;81;21062;-53
2022/02/27 00:14:34;;;;;;;5.72;3.83;;;;;;;8.98;49.69;102802.89;1754622;80;20979;-52
2022/02/27 00:17:00;;;;;;;4.42;3.58;;;;;;;8.92;49.67;102801.48;1748769;80;20994;-52
2022/02/27 00:19:28;;;;;;;4.83;3.35;;;;;;;8.88;49.75;102798.39;1751095;80;21022;-52
2022/02/27 00:21:54;;;;;;;6.92;3.70;;;;;;;8.83;49.78;102798.30;1763011;80;21081;-53
2022/02/27 00:24:21;;;;;;;5.17;3.95;;;;;;;8.79;49.74;102800.80;1755129;80;21058;-53
2022/02/27 00:26:48;;;;;;;5.15;3.50;;;;;;;8.75;49.58;102799.89;1760966;80;22576;-53
2022/02/27 00:29:15;;;;;;;4.67;3.60;;;;;;;8.73;49.60;102804.59;1721711;82;21015;-52
2022/02/27 00:31:42;;;;;;;7.45;3.70;;;;;;;8.69;49.60;102809.27;1716315;82;21039;-52
2022/02/27 00:34:09;;;;;;;5.67;4.05;;;;;;;8.67;49.53;102807.08;1760611;80;21034;-52
2022/02/27 00:36:36;;;;;;;4.45;3.55;;;;;;;8.65;49.49;102816.55;1750834;80;21513;-53
2022/02/27 00:39:05;;;;;;;6.92;4.15;;;;;;;8.64;49.45;102817.38;1763726;80;21041;-52
2022/02/27 00:41:32;;;;;;;5.62;4.10;;;;;;;8.62;49.43;102818.66;1773177;80;21510;-52
2022/02/27 00:43:59;;;;;;;5.97;4.00;;;;;;;8.58;49.17;102823.34;1764516;80;21018;-52
2022/02/27 00:46:26;;;;;;;6.33;3.87;;;;;;;8.57;49.44;102824.17;1759766;80;21058;-52
2022/02/27 00:48:52;;;;;;;5.35;3.62;;;;;;;8.55;49.27;102823.27;1745542;80;21093;-54
2022/02/27 00:51:18;;;;;;;6.70;4.25;;;;;;;8.52;49.28;102819.75;1747244;80;21049;-52
2022/02/27 00:53:45;;;;;;;6.72;4.08;;;;;;;8.51;49.26;102818.02;1760039;80;20985;-52
2022/02/27 00:56:12;;;;;;;5.65;3.77;;;;;;;8.50;49.28;102824.03;1756731;80;20998;-52
2022/02/27 00:58:41;;;;;;;5.87;3.80;;;;;;;8.49;49.52;102827.49;1768445;80;21030;-52
2022/02/27 01:01:07;;;;;;;5.87;3.70;;;;;;;8.50;49.91;102823.63;1739883;81;21014;-52
2022/02/27 01:03:33;;;;;;;4.20;3.45;;;;;;;8.53;49.87;102828.00;1755727;80;21070;-52
2022/02/27 01:06:00;;;;;;;5.05;3.52;;;;;;;8.55;49.39;102825.02;1766102;80;20991;-53
2022/02/27 01:08:29;;;;;;;5.47;3.85;;;;;;;8.57;49.15;102825.92;1779159;80;21007;-52
2022/02/27 01:10:55;;;;;;;7.30;4.10;;;;;;;8.57;48.92;102828.52;1749491;80;20970;-53
2022/02/27 01:13:22;;;;;;;4.72;3.33;;;;;;;8.55;48.81;102828.91;1753731;80;21581;-52
2022/02/27 01:15:48;;;;;;;4.45;3.20;;;;;;;8.55;48.44;102832.80;1754365;80;20995;-53
2022/02/27 01:18:15;;;;;;;6.15;3.20;;;;;;;8.52;48.14;102831.42;1750611;80;21506;-52
2022/02/27 01:20:42;;;;;;;4.97;3.22;;;;;;;8.48;48.11;102827.02;1755986;80;21037;-52
2022/02/27 01:23:12;;;;;;;5.85;3.45;;;;;;;8.43;48.52;102824.78;1757085;80;21007;-52
2022/02/27 01:25:38;;;;;;;3.90;3.25;;;;;;;8.42;48.66;102830.80;1768738;80;21002;-52
2022/02/27 01:28:05;;;;;;;5.22;3.47;;;;;;;8.39;48.67;102832.05;1748193;81;21074;-52
2022/02/27 01:30:32;;;;;;;10.82;3.42;;;;;;;8.38;48.69;102828.98;1760559;80;21086;-52
2022/02/27 01:33:00;;;;;;;3.98;2.90;;;;;;;8.39;48.79;102833.34;1770704;80;21022;-53
2022/02/27 01:35:26;;;;;;;4.95;2.77;;;;;;;8.41;48.80;102832.95;1759107;80;21030;-52
2022/02/27 01:37:53;;;;;;;4.42;3.25;;;;;;;8.43;48.51;102842.94;1753316;80;21014;-53
2022/02/27 01:40:20;;;;;;;5.45;3.55;;;;;;;8.38;48.69;102837.66;1747375;80;21070;-52
2022/02/27 01:42:47;;;;;;;7.08;3.52;;;;;;;8.37;48.67;102842.78;1758571;80;21038;-53
2022/02/27 01:45:13;;;;;;;6.20;3.90;;;;;;;8.34;48.56;102833.66;1747694;80;20987;-52
2022/02/27 01:47:39;;;;;;;4.20;2.72;;;;;;;8.31;48.61;102838.77;1762857;80;21062;-53
2022/02/27 01:50:08;;;;;;;5.05;3.52;;;;;;;8.26;48.46;102841.30;1760502;80;21061;-51
2022/02/27 01:52:34;;;;;;;6.12;3.30;;;;;;;8.22;48.38;102843.34;1754083;80;22120;-51
2022/02/27 01:55:00;;;;;;;5.80;3.15;;;;;;;8.19;48.52;102846.73;1766044;80;21477;-51
2022/02/27 01:57:27;;;;;;;6.95;3.87;;;;;;;8.14;48.44;102845.75;1758690;80;20991;-54
2022/02/27 01:59:54;;;;;;;5.47;3.27;;;;;;;8.12;48.39;102846.14;1761688;80;21491;-53
2022/02/27 02:02:21;;;;;;;7.47;4.12;;;;;;;8.09;48.44;102847.39;1751573;80;21511;-51
2022/02/27 02:04:48;;;;;;;6.15;3.52;;;;;;;8.05;48.53;102848.16;1765259;80;21478;-51
2022/02/27 02:07:15;;;;;;;6.58;3.35;;;;;;;8.04;48.72;102852.88;1760827;80;21031;-51
2022/02/27 02:09:42;;;;;;;7.20;3.40;;;;;;;8.02;48.70;102852.38;1754634;80;21518;-53
2022/02/27 02:12:10;;;;;;;4.97;3.22;;;;;;;8.01;48.71;102859.31;1775119;80;21023;-53
2022/02/27 02:14:37;;;;;;;3.42;3.00;;;;;;;8.00;48.73;102858.84;1757710;80;21046;-53
2022/02/27 02:17:04;;;;;;;4.78;2.77;;;;;;;8.00;48.86;102856.25;1757691;80;21008;-53
2022/02/27 02:19:31;;;;;;;4.80;3.17;;;;;;;7.98;49.02;102854.05;1754835;80;21136;-53
2022/02/27 02:22:01;;;;;;;6.40;3.40;;;;;;;8.00;49.08;102856.66;1744414;80;21116;-53
2022/02/27 02:24:28;;;;;;;5.30;3.55;;;;;;;8.00;49.10;102861.44;1754829;80;21006;-54
2022/02/27 02:26:55;;;;;;;6.25;2.95;;;;;;;7.99;49.17;102857.52;1757857;80;20996;-53
2022/02/27 02:29:23;;;;;;;8.10;3.67;;;;;;;7.99;49.36;102861.00;1766516;80;21034;-53
2022/02/27 02:31:53;;;;;;;5.03;2.95;;;;;;;7.99;49.36;102859.70;1755180;81;21066;-53
2022/02/27 02:34:21;;;;;;;4.33;2.87;;;;;;;7.97;49.60;102860.09;1755174;80;21078;-54
2022/02/27 02:36:48;;;;;;;5.45;3.15;;;;;;;7.97;49.39;102862.68;1749853;81;20994;-53
2022/02/27 02:39:19;;;;;;;5.15;2.90;;;;;;;7.92;49.55;102869.46;1753700;80;21534;-53
2022/02/27 02:41:46;;;;;;;7.58;3.40;;;;;;;7.87;49.59;102868.47;1782608;80;21049;-53
2022/02/27 02:44:15;;;;;;;5.78;3.37;;;;;;;7.84;49.76;102865.83;1760376;80;21026;-53
2022/02/27 02:46:42;;;;;;;4.47;3.12;;;;;;;7.79;49.89;102867.42;1755423;80;21474;-52
2022/02/27 02:49:09;;;;;;;4.58;3.02;;;;;;;7.76;50.15;102864.78;1760347;80;21541;-53
2022/02/27 02:51:38;;;;;;;5.78;2.65;;;;;;;7.75;50.30;102857.83;1754821;80;21002;-53
2022/02/27 02:54:05;;;;;;;4.05;2.45;;;;;;;7.75;50.39;102860.42;1768397;80;21061;-53
2022/02/27 02:56:32;;;;;;;4.37;2.95;;;;;;;7.75;50.04;102859.56;1762155;80;21039;-53
2022/02/27 02:58:59;;;;;;;6.05;2.77;;;;;;;7.75;49.94;102864.75;1747184;80;21090;-53
2022/02/27 03:01:25;;;;;;;3.87;2.92;;;;;;;7.72;49.89;102865.55;1765478;80;21034;-53
2022/02/27 03:03:52;;;;;;;5.58;3.22;;;;;;;7.72;49.79;102870.73;1752548;80;21065;-53
2022/02/27 03:06:19;;;;;;;4.17;2.72;;;;;;;7.70;49.70;102866.34;1755084;80;20987;-53
2022/02/27 03:08:47;;;;;;;3.98;2.95;;;;;;;7.68;49.43;102878.39;1760736;80;21026;-53
2022/02/27 03:11:15;;;;;;;3.62;2.80;;;;;;;7.64;49.76;102876.56;1742853;80;21040;-53
2022/02/27 03:13:42;;;;;;;5.05;2.75;;;;;;;7.61;49.87;102876.06;1759355;80;21491;-53
2022/02/27 03:16:09;;;;;;;4.03;3.22;;;;;;;7.59;50.01;102879.04;1754361;80;21503;-54
2022/02/27 03:18:36;;;;;;;5.83;3.35;;;;;;;7.54;49.63;102875.48;1776417;80;21054;-52
2022/02/27 03:21:06;;;;;;;5.15;2.95;;;;;;;7.50;49.64;102871.03;1756797;80;21002;-54
2022/02/27 03:23:33;;;;;;;4.12;2.80;;;;;;;7.46;49.94;102871.80;1757464;80;21066;-52
2022/02/27 03:25:59;;;;;;;3.95;3.10;;;;;;;7.44;49.92;102881.25;1760000;80;21003;-53
2022/02/27 03:28:26;;;;;;;5.35;2.85;;;;;;;7.43;50.22;102879.52;1752618;81;21011;-53
2022/02/27 03:30:52;;;;;;;4.75;3.37;;;;;;;7.41;50.53;102873.41;1745736;81;21006;-52
2022/02/27 03:33:19;;;;;;;3.98;3.10;;;;;;;7.42;50.43;102872.56;1756218;80;20998;-52
2022/02/27 03:35:45;;;;;;;6.85;3.52;;;;;;;7.41;50.33;102876.01;1750913;80;21492;-53
2022/02/27 03:38:11;;;;;;;5.80;3.35;;;;;;;7.41;50.51;102882.48;1753811;80;21549;-53
2022/02/27 03:40:38;;;;;;;5.42;3.52;;;;;;;7.39;49.99;102877.69;1757738;80;21486;-52
2022/02/27 03:43:05;;;;;;;6.30;3.58;;;;;;;7.37;50.04;102885.84;1766199;80;21041;-53
2022/02/27 03:45:31;;;;;;;5.30;3.02;;;;;;;7.34;50.10;102884.45;1750763;80;21070;-53
2022/02/27 03:47:58;;;;;;;6.15;3.33;;;;;;;7.33;50.00;102890.48;1757909;80;21030;-53
2022/02/27 03:50:24;;;;;;;3.37;2.87;;;;;;;7.29;49.82;102891.24;1754343;80;21058;-53
2022/02/27 03:52:51;;;;;;;4.97;3.40;;;;;;;7.27;50.01;102883.85;1753609;80;21509;-53
2022/02/27 03:55:17;;;;;;;5.67;3.77;;;;;;;7.28;49.86;102888.18;1750173;80;21505;-53
2022/02/27 03:57:44;;;;;;;4.97;2.75;;;;;;;7.23;49.85;102887.20;1755124;80;21497;-53
2022/02/27 04:00:14;;;;;;;4.28;2.67;;;;;;;7.22;50.02;102889.32;1755017;80;20995;-52
2022/02/27 04:02:41;;;;;;;6.17;2.90;;;;;;;7.18;49.81;102888.38;1756993;80;21508;-53
2022/02/27 04:05:08;;;;;;;6.42;3.35;;;;;;;7.14;49.97;102889.13;1770490;81;21026;-53
2022/02/27 04:07:34;;;;;;;4.85;2.85;;;;;;;7.13;49.96;102891.69;1761696;80;20971;-52
2022/02/27 04:10:01;;;;;;;6.37;3.10;;;;;;;7.09;50.01;102897.63;1765299;80;21014;-52
2022/02/27 04:12:27;;;;;;;4.92;3.15;;;;;;;7.05;49.79;102897.05;1758189;80;21022;-52
2022/02/27 04:14:53;;;;;;;4.55;3.15;;;;;;;7.00;49.82;102899.95;1753201;80;20990;-52
2022/02/27 04:17:20;;;;;;;4.50;3.08;;;;;;;6.97;49.83;102898.56;1763713;80;21545;-53
2022/02/27 04:19:47;;;;;;;5.42;2.98;;;;;;;6.94;49.95;102902.38;1765909;80;21548;-53
2022/02/27 04:22:13;;;;;;;5.25;3.25;;;;;;;6.93;49.98;102902.79;1754180;80;21509;-52
2022/02/27 04:24:39;;;;;;;7.25;3.55;;;;;;;6.89;50.13;102900.07;1760906;80;21128;-52
2022/02/27 04:27:06;;;;;;;5.40;3.40;;;;;;;6.87;50.21;102900.45;1769377;80;20983;-53
2022/02/27 04:29:33;;;;;;;4.78;3.15;;;;;;;6.84;50.27;102902.97;1759689;80;21534;-53
2022/02/27 04:31:59;;;;;;;4.78;3.40;;;;;;;6.81;50.42;102900.28;1764222;80;21530;-53
2022/02/27 04:34:25;;;;;;;8.28;3.60;;;;;;;6.79;50.40;102899.36;1750808;80;21004;-53
2022/02/27 04:36:52;;;;;;;6.72;3.27;;;;;;;6.77;50.41;102911.38;1750216;80;21037;-53
2022/02/27 04:39:18;;;;;;;5.42;3.12;;;;;;;6.74;50.49;102908.73;1751536;80;20991;-53
2022/02/27 04:41:46;;;;;;;4.83;3.25;;;;;;;6.73;50.54;102917.30;1752777;80;21065;-52
2022/02/27 04:44:14;;;;;;;5.60;3.55;;;;;;;6.70;50.63;102912.91;1753797;81;21053;-52
2022/02/27 04:46:41;;;;;;;5.53;3.22;;;;;;;6.72;50.51;102923.33;1753616;80;21090;-52
2022/02/27 04:49:07;;;;;;;7.75;3.35;;;;;;;6.71;50.64;102921.56;1763586;80;21014;-53
2022/02/27 04:51:34;;;;;;;5.10;3.45;;;;;;;6.70;50.67;102920.67;1755988;80;21044;-52
2022/02/27 04:54:01;;;;;;;7.78;3.92;;;;;;;6.71;50.78;102926.73;1751391;80;21067;-52
2022/02/27 04:56:27;;;;;;;5.78;3.77;;;;;;;6.70;50.89;102928.44;1771287;80;21019;-52
2022/02/27 04:58:54;;;;;;;5.87;3.55;;;;;;;6.69;50.97;102928.41;1755891;80;21066;-53
2022/02/27 05:01:21;;;;;;;5.37;3.33;;;;;;;6.72;51.16;102940.15;1746041;80;21066;-52
2022/02/27 05:03:47;;;;;;;4.33;3.12;;;;;;;6.73;51.06;102938.00;1751697;80;21575;-52
2022/02/27 05:06:14;;;;;;;4.87;3.33;;;;;;;6.74;51.12;102937.19;1763968;80;21511;-52
2022/02/27 05:08:41;;;;;;;4.58;3.30;;;;;;;6.72;50.99;102934.97;1752133;81;21022;-52
2022/02/27 05:11:08;;;;;;;3.70;3.08;;;;;;;6.71;51.05;102942.26;1750965;80;21063;-53
2022/02/27 05:13:34;;;;;;;5.50;3.25;;;;;;;6.70;51.11;102941.38;1752938;80;21002;-53
2022/02/27 05:16:00;;;;;;;5.28;3.85;;;;;;;6.69;51.10;102947.40;1750241;80;20978;-52
2022/02/27 05:18:27;;;;;;;7.20;3.72;;;;;;;6.70;51.06;102946.55;1751613;81;21035;-54
2022/02/27 05:20:53;;;;;;;4.58;3.62;;;;;;;6.69;51.06;102943.92;1739145;80;21030;-52
2022/02/27 05:23:20;;;;;;;5.03;3.80;;;;;;;6.68;51.31;102944.78;1751977;80;21078;-52
2022/02/27 05:25:46;;;;;;;4.92;3.30;;;;;;;6.68;51.33;102943.04;1754047;81;20991;-52
2022/02/27 05:28:13;;;;;;;8.33;3.72;;;;;;;6.69;51.32;102946.52;1763034;80;20967;-52
2022/02/27 05:30:40;;;;;;;5.80;3.83;;;;;;;6.70;51.21;102941.81;1751828;80;21116;-52
2022/02/27 05:33:15;;;;;;;6.00;4.20;;;;;;;6.72;51.27;102944.03;1766271;80;21042;-52
2022/02/27 05:35:41;;;;;;;6.17;3.80;;;;;;;6.71;51.31;102945.73;1746329;81;21010;-52
2022/02/27 05:38:08;;;;;;;5.60;3.33;;;;;;;6.72;51.40;102948.76;1749074;80;21030;-52
2022/02/27 05:40:34;;;;;;;4.55;3.12;;;;;;;6.74;51.34;102947.54;1752289;80;21089;-53
2022/02/27 05:43:02;;;;;;;6.78;3.35;;;;;;;6.75;51.12;102951.86;1753521;80;21517;-52
2022/02/27 05:45:28;;;;;;;5.25;3.62;;;;;;;6.75;51.00;102948.86;1765620;80;20987;-53
2022/02/27 05:47:56;;;;;;;5.03;3.85;;;;;;;6.74;50.84;102944.95;1756677;80;21066;-53
2022/02/27 05:50:22;;;;;;;5.60;3.67;;;;;;;6.75;50.87;102950.16;1759042;80;21046;-52
2022/02/27 05:52:49;;;;;;;5.47;3.42;;;;;;;6.76;50.66;102958.36;1780157;80;21039;-52
2022/02/27 05:55:18;;;;;;;5.15;3.70;;;;;;;6.79;50.55;102956.29;1758325;80;21066;-53
2022/02/27 05:57:44;;;;;;;4.22;3.00;;;;;;;6.78;50.47;102955.84;1758732;80;20983;-52
2022/02/27 06:00:12;;;;;;;5.58;3.75;;;;;;;6.79;50.60;102962.34;1756079;80;21025;-52
2022/02/27 06:02:39;;;;;;;5.97;3.60;;;;;;;6.82;50.54;102962.42;1756196;80;20998;-52
2022/02/27 06:05:07;;;;;;;8.03;3.70;;;;;;;6.87;50.63;102958.27;1750223;80;21031;-52
2022/02/27 06:07:35;;;;;;;6.10;3.20;;;;;;;6.90;50.38;102960.07;1767959;80;21070;-52
2022/02/27 06:10:03;;;;;;;6.42;3.72;;;;;;;6.93;50.25;102963.61;1753324;80;21058;-53
2022/02/27 06:12:30;;;;;;;5.10;3.55;;;;;;;6.94;50.19;102964.50;1776729;80;21007;-52
2022/02/27 06:14:57;;;;;;;6.50;3.70;;;;;;;6.93;50.23;102970.48;1767474;80;21001;-52
2022/02/27 06:17:23;;;;;;;5.58;4.03;;;;;;;6.97;50.45;102969.73;1748317;80;21056;-52
2022/02/27 06:19:52;;;;;;;4.37;3.50;;;;;;;7.17;50.65;102965.57;1751504;80;21006;-52
2022/02/27 06:22:18;;;;;;;4.25;3.40;;;;;;;7.53;50.17;102968.68;1751058;80;20984;-52
2022/02/27 06:24:44;;;;;;;5.25;3.75;;;;;;;7.90;49.55;102963.58;1748373;80;21092;-53
2022/02/27 06:27:11;;;;;;;5.60;3.60;;;;;;;8.23;48.51;102961.78;1754475;81;21003;-53
2022/02/27 06:29:37;;;;;;;7.17;4.03;;;;;;;8.48;47.86;102964.53;1760311;80;21003;-52
2022/02/27 06:32:06;;;;;;;5.03;3.95;;;;;;;8.68;47.28;102965.83;1771957;80;21089;-52
2022/02/27 06:34:32;;;;;;;6.35;3.87;;;;;;;8.79;47.01;102960.03;1758804;80;20998;-52
2022/02/27 06:36:59;;;;;;;7.05;3.83;;;;;;;8.88;46.74;102960.65;1759057;80;21076;-54
2022/02/27 06:39:25;;;;;;;5.80;3.65;;;;;;;8.95;46.50;102957.31;1750653;80;21093;-52
2022/02/27 06:41:52;;;;;;;4.75;3.72;;;;;;;9.02;46.44;102959.20;1772459;80;21066;-52
2022/02/27 06:44:20;;;;;;;4.72;3.45;;;;;;;9.12;46.36;102962.83;1763934;80;21031;-53
2022/02/27 06:46:47;;;;;;;7.10;4.25;;;;;;;9.25;46.13;102970.91;1741634;80;21033;-52
2022/02/27 06:49:13;;;;;;;5.22;3.42;;;;;;;9.35;45.93;102969.34;1745626;80;21513;-53
2022/02/27 06:51:40;;;;;;;5.22;3.80;;;;;;;9.44;45.68;102971.67;1756996;80;21510;-53
2022/02/27 06:54:06;;;;;;;4.58;3.42;;;;;;;9.53;45.63;102980.95;1761307;81;21025;-52
2022/02/27 06:56:33;;;;;;;6.03;3.58;;;;;;;9.57;45.30;102974.95;1759266;80;20982;-52
2022/02/27 06:59:00;;;;;;;5.30;3.20;;;;;;;9.52;45.37;102980.92;1759791;80;21010;-52
2022/02/27 07:01:26;;;;;;;7.40;3.95;;;;;;;9.51;45.58;102982.64;1766743;80;21007;-52
2022/02/27 07:03:53;;;;;;;10.55;6.55;;;;;;;9.51;45.54;102983.94;1757845;80;21062;-52
2022/02/27 07:06:20;;;;;;;8.05;4.30;;;;;;;9.55;45.52;102981.85;1756587;80;21046;-52
2022/02/27 07:08:48;;;;;;;7.10;4.40;;;;;;;9.53;45.31;102980.95;1771698;80;21047;-52
2022/02/27 07:11:14;;;;;;;4.45;3.83;;;;;;;9.49;45.35;102981.74;1753544;80;21112;-52
2022/02/27 07:13:41;;;;;;;6.03;4.15;;;;;;;9.42;45.53;102979.87;1753533;80;21094;-52
2022/02/27 07:16:08;;;;;;;5.53;3.67;;;;;;;9.36;45.68;102982.36;1751511;80;21487;-53
2022/02/27 07:18:34;;;;;;;10.63;6.20;;;;;;;9.36;45.95;102976.27;1757309;80;21029;-52
2022/02/27 07:21:02;;;;;;;7.78;4.30;;;;;;;9.38;46.14;102983.26;1760319;80;20962;-56
2022/02/27 07:23:29;;;;;;;5.50;3.25;;;;;;;9.36;46.43;102977.58;1703529;83;21047;-53
2022/02/27 07:25:55;;;;;;;5.12;3.92;;;;;;;9.37;46.71;102980.23;1690828;84;21074;-52
2022/02/27 07:28:22;;;;;;;5.03;3.70;;;;;;;9.38;46.68;102976.77;1695866;83;21003;-52
2022/02/27 07:30:48;;;;;;;4.00;3.00;;;;;;;9.38;46.79;102981.95;1696932;83;21046;-52
2022/02/27 07:33:15;;;;;;;6.45;3.40;;;;;;;9.41;46.77;102977.25;1708899;83;21519;-53
2022/02/27 07:35:42;;;;;;;6.08;3.47;;;;;;;9.40;46.69;102981.56;1702421;83;21620;-52
2022/02/27 07:38:27;;;;;;;6.67;3.83;;;;;;;9.37;46.76;102973.73;1704122;83;21031;-52
2022/02/27 07:40:53;;;;;;;8.03;3.50;;;;;;;9.31;46.81;102977.52;1695323;84;21004;-52
2022/02/27 07:43:21;;;;;;;7.00;3.65;;;;;;;9.29;46.86;102970.12;1709888;83;21028;-53
2022/02/27 07:45:50;;;;;;;4.37;2.72;;;;;;;9.29;46.88;102964.92;1698868;84;21099;-52
2022/02/27 07:48:17;;;;;;;6.67;3.30;;;;;;;9.32;47.15;102961.06;1702950;83;21087;-53
2022/02/27 07:50:44;;;;;;;6.05;3.47;;;;;;;9.39;47.26;102952.96;1694648;84;21058;-53
2022/02/27 07:53:10;;;;;;;4.92;3.58;;;;;;;9.46;46.99;102962.18;1694148;84;21079;-52
2022/02/27 07:55:37;;;;;;;5.42;3.30;;;;;;;9.51;46.90;102965.75;1696798;84;21051;-52
2022/02/27 07:58:05;;;;;;;5.87;3.60;;;;;;;9.56;46.64;102960.64;1728413;82;21055;-52
2022/02/27 08:00:32;;;;;;;9.13;3.85;;;;;;;9.56;46.57;102960.19;1726911;82;21073;-53
2022/02/27 08:02:58;;;;;;;6.45;4.00;;;;;;;9.58;46.65;102955.05;1759747;80;21569;-51
2022/02/27 08:05:25;;;;;;;5.70;3.50;;;;;;;9.59;46.66;102960.26;1760773;80;21030;-51
2022/02/27 08:07:55;;;;;;;7.35;4.10;;;;;;;9.62;46.47;102960.30;1721276;80;21045;-51
2022/02/27 08:10:20;;;;;;;6.55;3.87;;;;;;;9.61;46.46;102957.27;1772396;80;21518;-51
2022/02/27 08:12:47;;;;;;;5.00;3.83;;;;;;;9.60;46.18;102955.49;1752217;80;20986;-52
2022/02/27 08:15:15;;;;;;;6.80;4.33;;;;;;;9.59;46.12;102952.88;1761702;80;21514;-52
2022/02/27 08:17:42;;;;;;;6.55;4.12;;;;;;;9.58;46.34;102956.34;1779374;80;21010;-51
2022/02/27 08:20:10;;;;;;;6.95;4.15;;;;;;;9.57;46.11;102952.86;1761208;80;21049;-51
2022/02/27 08:22:37;;;;;;;5.67;4.10;;;;;;;9.57;46.25;102959.36;1759775;80;21053;-51
2022/02/27 08:25:06;;;;;;;4.62;3.25;;;;;;;9.60;46.32;102956.80;1754984;81;21082;-52
2022/02/27 08:27:34;;;;;;;6.30;3.27;;;;;;;9.67;46.39;102957.36;1765298;80;20967;-51
2022/02/27 08:30:00;;;;;;;4.05;3.08;;;;;;;9.75;46.31;102957.06;1749031;80;21092;-51
2022/02/27 08:32:27;;;;;;;5.17;3.47;;;;;;;9.83;46.25;102954.16;1754953;80;21039;-53
2022/02/27 08:34:54;;;;;;;6.65;3.25;;;;;;;9.92;45.76;102952.13;1762170;80;21029;-51
2022/02/27 08:37:21;;;;;;;4.35;2.90;;;;;;;9.98;45.69;102948.74;1749781;81;21551;-51
2022/02/27 08:39:47;;;;;;;5.25;3.00;;;;;;;10.03;45.18;102952.30;1751244;80;21082;-51
2022/02/27 08:42:13;;;;;;;5.00;3.15;;;;;;;10.09;45.00;102951.09;1758020;80;21034;-51
2022/02/27 08:44:41;;;;;;;6.35;3.15;;;;;;;10.15;45.04;102952.52;1767887;80;21116;-51
2022/02/27 08:47:08;;;;;;;5.85;3.25;;;;;;;10.23;44.75;102957.41;1753104;80;20979;-51
2022/02/27 08:49:36;;;;;;;4.08;3.10;;;;;;;10.27;44.20;102959.20;1756268;80;21097;-51
2022/02/27 08:52:03;;;;;;;6.30;3.42;;;;;;;10.30;43.78;102942.34;1752222;81;21090;-51
2022/02/27 08:54:32;;;;;;;4.20;2.70;;;;;;;10.33;44.15;102938.47;1753846;80;21497;-51
2022/02/27 08:56:58;;;;;;;8.45;3.30;;;;;;;10.35;44.07;102934.16;1755988;80;21521;-52
2022/02/27 08:59:26;;;;;;;6.37;3.10;;;;;;;10.40;44.19;102933.81;1754946;80;21056;-52
2022/02/27 09:01:52;;;;;;;4.10;3.00;;;;;;;10.43;44.25;102928.63;1760470;80;20983;-52
2022/02/27 09:04:19;;;;;;;3.02;2.65;;;;;;;10.48;44.10;102933.48;1759474;80;21005;-52
2022/02/27 09:06:45;;;;;;;3.80;2.80;;;;;;;10.49;44.33;102930.00;1765608;80;21006;-52
2022/02/27 09:09:12;;;;;;;4.78;2.65;;;;;;;10.52;44.78;102924.44;1760286;80;21952;-52
2022/02/27 09:11:39;;;;;;;6.05;2.60;;;;;;;10.57;44.71;102930.55;1738136;80;21519;-52
2022/02/27 09:14:05;;;;;;;5.17;2.62;;;;;;;10.61;44.36;102934.09;1755996;80;20966;-52
2022/02/27 09:16:32;;;;;;;5.10;2.92;;;;;;;10.62;44.30;102928.02;1749441;81;21042;-52
2022/02/27 09:18:58;;;;;;;3.77;2.15;;;;;;;10.64;43.83;102928.91;1741997;80;20994;-52
2022/02/27 09:21:28;;;;;;;5.45;2.50;;;;;;;10.69;43.04;102931.58;1759736;80;20998;-52
2022/02/27 09:23:55;;;;;;;3.50;2.52;;;;;;;10.70;42.89;102931.59;1756296;80;21011;-52
2022/02/27 09:26:24;;;;;;;3.98;2.52;;;;;;;10.71;42.54;102928.14;1766499;80;21046;-52
2022/02/27 09:28:51;;;;;;;3.35;2.42;;;;;;;10.73;42.09;102934.24;1762954;80;21065;-52
2022/02/27 09:31:18;;;;;;;3.70;2.47;;;;;;;10.73;42.38;102921.22;1761342;80;21048;-52
2022/02/27 09:33:45;;;;;;;4.92;2.70;;;;;;;10.76;42.39;102924.30;1763619;80;21011;-52
2022/02/27 09:36:13;;;;;;;5.37;2.77;;;;;;;10.79;42.39;102931.71;1767277;80;21036;-52
2022/02/27 09:38:42;;;;;;;2.95;1.95;;;;;;;10.81;41.64;102927.39;1749549;81;21042;-52
2022/02/27 09:41:08;;;;;;;3.87;1.90;;;;;;;10.81;41.47;102927.39;1752714;81;21034;-52
2022/02/27 09:43:37;;;;;;;2.62;1.87;;;;;;;10.80;41.40;102922.17;1765426;80;21027;-54
2022/02/27 09:46:03;;;;;;;4.58;2.67;;;;;;;10.81;40.48;102926.09;1756570;80;21516;-53
2022/02/27 09:48:30;;;;;;;3.83;2.33;;;;;;;10.85;40.52;102920.48;1752656;80;20978;-51
2022/02/27 09:50:57;;;;;;;3.25;2.00;;;;;;;10.89;40.01;102912.72;1757386;80;21010;-53
2022/02/27 09:53:24;;;;;;;3.37;2.00;;;;;;;10.92;39.84;102920.55;1749453;80;21049;-52
2022/02/27 09:55:50;;;;;;;3.22;1.75;;;;;;;10.95;39.37;102908.88;1759878;81;20972;-51
2022/02/27 09:58:17;;;;;;;3.95;1.92;;;;;;;10.96;39.28;102911.95;1759038;81;20968;-51
2022/02/27 10:00:43;;;;;;;4.03;2.02;;;;;;;10.96;39.03;102898.92;1744905;81;21050;-53
2022/02/27 10:03:15;;;;;;;3.22;2.20;;;;;;;10.96;39.07;102896.31;1750844;80;21031;-52
2022/02/27 10:05:44;;;;;;;2.60;1.67;;;;;;;10.97;38.80;102900.66;1691023;84;21109;-52
2022/02/27 10:08:12;;;;;;;2.35;1.85;;;;;;;11.01;38.92;102897.22;1685846;83;21069;-51
2022/02/27 10:10:43;;;;;;;4.20;1.90;;;;;;;11.06;39.01;102892.95;1688519;84;21054;-52
2022/02/27 10:13:09;;;;;;;5.58;2.40;;;;;;;11.10;39.35;102889.52;1675472;84;21509;-52
2022/02/27 10:15:36;;;;;;;2.95;2.02;;;;;;;11.14;39.73;102892.59;1686150;84;21552;-52
2022/02/27 10:18:14;;;;;;;3.35;2.30;;;;;;;11.21;40.01;102899.59;1691215;83;21187;-52
2022/02/27 10:20:41;;;;;;;4.33;2.10;;;;;;;11.26;39.88;102907.04;1690848;83;21046;-52
2022/02/27 10:23:08;;;;;;;2.90;1.92;;;;;;;11.31;39.91;102901.42;1694044;84;21042;-52
2022/02/27 10:25:36;;;;;;;3.35;1.98;;;;;;;11.37;40.13;102900.63;1683811;84;21124;-52
2022/02/27 10:28:04;;;;;;;3.12;2.10;;;;;;;11.42;40.34;102903.70;1680434;83;21110;-53
2022/02/27 10:30:37;;;;;;;8.45;2.58;;;;;;;11.46;40.26;102901.56;1672145;84;21501;-52
2022/02/27 10:33:11;;;;;;;4.22;2.45;;;;;;;11.48;40.26;102899.42;1693209;83;21112;-52
2022/02/27 10:35:51;;;;;;;4.53;2.25;;;;;;;11.50;40.24;102897.70;1691293;84;21078;-52
2022/02/27 10:41:14;;;;;;;4.22;2.15;;;;;;;11.45;40.19;102878.98;1593494;88;21127;-52
2022/02/27 10:43:44;;;;;;;2.90;2.05;;;;;;;11.46;40.12;102885.92;1593837;88;21092;-53
2022/02/27 10:46:11;;;;;;;4.42;1.95;;;;;;;11.45;40.17;102875.08;1596142;88;21528;-52
2022/02/27 10:48:38;;;;;;;3.37;1.77;;;;;;;11.50;39.81;102876.84;1591743;88;21545;-53
2022/02/27 10:51:13;;;;;;;3.45;2.05;;;;;;;11.46;40.19;102871.59;1591701;88;21061;-52
2022/02/27 10:53:44;;;;;;;3.37;2.10;;;;;;;11.46;40.25;102872.01;1574145;89;21065;-52
2022/02/27 10:56:12;;;;;;;3.70;2.40;;;;;;;11.55;40.22;102872.52;1575305;89;21134;-52
2022/02/27 10:58:48;;;;;;;2.75;1.80;;;;;;;11.59;40.08;102861.25;1575205;89;21605;-52
2022/02/27 11:01:21;;;;;;;4.40;1.98;;;;;;;11.60;40.26;102864.31;1572626;89;21076;-52
2022/02/27 11:03:54;;;;;;;4.00;2.00;;;;;;;11.61;40.17;102855.61;1574689;90;21073;-52
2022/02/27 11:06:21;;;;;;;3.05;1.57;;;;;;;11.63;40.37;102850.86;1526393;92;21078;-52
2022/02/27 11:08:47;;;;;;;2.33;1.55;;;;;;;11.68;40.38;102845.72;1515223;93;21067;-52
2022/02/27 11:11:15;;;;;;;2.98;1.77;;;;;;;11.71;40.29;102852.23;1518109;92;21108;-51
2022/02/27 11:13:45;;;;;;;2.55;1.60;;;;;;;11.74;39.81;102846.63;1525874;92;21171;-51
2022/02/27 11:16:13;;;;;;;3.45;1.55;;;;;;;11.79;39.92;102844.91;1513845;92;21056;-51
2022/02/27 11:18:41;;;;;;;3.52;1.70;;;;;;;11.91;39.76;102841.53;1520242;92;21072;-51
2022/02/27 11:21:09;;;;;;;3.20;1.30;;;;;;;11.93;39.94;102843.25;1517010;92;21255;-52
2022/02/27 11:23:36;;;;;;;2.58;1.40;;;;;;;11.92;39.95;102838.03;1522241;92;21180;-53
2022/02/27 11:26:03;;;;;;;2.05;1.37;;;;;;;11.89;40.20;102844.09;1521779;92;21090;-51
2022/02/27 11:28:30;;;;;;;2.42;1.40;;;;;;;11.84;40.30;102841.91;1531476;92;21555;-53
2022/02/27 11:31:02;;;;;;;3.08;1.65;;;;;;;11.81;40.28;102839.73;1527179;92;21055;-53
2022/02/27 11:33:29;;;;;;;2.90;1.70;;;;;;;11.74;40.93;102832.72;1523935;93;21510;-53
2022/02/27 11:35:58;;;;;;;3.00;1.50;;;;;;;11.75;41.40;102834.45;1555582;91;21492;-53